createdAt,value
2018-04-28T00:01:06.693Z,98.65
2018-04-28T00:02:15.528Z,98.08
2018-04-28T00:03:24.413Z,97.22
2018-04-28T00:04:33.245Z,97.8
2018-04-28T00:05:42.076Z,98.36
2018-04-28T00:06:50.909Z,98.08
2018-04-28T00:08:00.108Z,97.8
2018-04-28T00:09:09.227Z,98.36
2018-04-28T00:10:18.059Z,97.99
2018-04-28T00:11:26.892Z,98.27
2018-04-28T00:12:35.725Z,97.89
2018-04-28T00:13:44.559Z,97.99
2018-04-28T00:14:53.392Z,98.08
2018-04-28T00:16:02.510Z,98.27
2018-04-28T00:17:11.349Z,98.75
2018-04-28T00:18:20.179Z,97.8
2018-04-28T00:19:29.317Z,98.94
2018-04-28T00:20:38.427Z,98.27
2018-04-28T00:21:47.260Z,99.32
2018-04-28T00:22:56.094Z,98.18
2018-04-28T00:24:04.929Z,97.89
2018-04-28T00:25:14.139Z,98.08
2018-04-28T00:26:23.529Z,98.85
2018-04-28T00:27:32.365Z,98.46
2018-04-28T00:28:41.199Z,99.99
2018-04-28T00:29:50.029Z,99.13
2018-04-28T00:30:59.538Z,99.51
2018-04-28T00:32:08.372Z,99.32
2018-04-28T00:33:17.492Z,99.6
2018-04-28T00:34:26.338Z,99.13
2018-04-28T00:35:35.163Z,99.99
2018-04-28T00:36:43.997Z,97.89
2018-04-28T00:37:52.829Z,98.94
2018-04-28T00:39:01.664Z,99.13
2018-04-28T00:40:10.497Z,99.6
2018-04-28T00:41:19.330Z,99.99
2018-04-28T00:42:28.214Z,99.99
2018-04-28T00:43:37.051Z,99.99
2018-04-28T00:44:45.882Z,99.99
2018-04-28T00:45:54.717Z,99.99
2018-04-28T00:47:03.829Z,99.99
2018-04-28T00:48:12.716Z,99.99
2018-04-28T00:49:21.549Z,99.99
2018-04-28T00:50:30.384Z,99.99
2018-04-28T00:51:39.220Z,99.6
2018-04-28T00:52:48.059Z,99.99
2018-04-28T00:53:57.177Z,98.94
2018-04-28T00:55:06.011Z,99.99
2018-04-28T00:56:14.845Z,99.7
2018-04-28T00:57:23.952Z,99.8
2018-04-28T00:58:32.786Z,99.99
2018-04-28T00:59:41.719Z,99.7
2018-04-28T01:00:50.551Z,99.99
2018-04-28T01:01:59.385Z,99.99
2018-04-28T01:03:08.234Z,99.99
2018-04-28T01:04:17.066Z,99.99
2018-04-28T01:05:26.050Z,99.99
2018-04-28T01:06:34.882Z,99.99
2018-04-28T01:07:43.715Z,99.99
2018-04-28T01:08:52.828Z,99.55
2018-04-28T01:10:01.664Z,99.99
2018-04-28T01:11:11.023Z,99.55
2018-04-28T01:12:19.856Z,99.55
2018-04-28T01:13:28.689Z,99.75
2018-04-28T01:14:37.522Z,99.37
2018-04-28T01:15:46.628Z,99.65
2018-04-28T01:16:55.766Z,99.55
2018-04-28T01:18:04.597Z,99.08
2018-04-28T01:19:13.432Z,99.46
2018-04-28T01:20:22.265Z,98.79
2018-04-28T01:21:31.097Z,99.55
2018-04-28T01:22:40.181Z,99.75
2018-04-28T01:23:49.300Z,99.18
2018-04-28T01:24:58.131Z,98.89
2018-04-28T01:26:06.965Z,99.27
2018-04-28T01:27:16.076Z,98.6
2018-04-28T01:28:25.212Z,99.94
2018-04-28T01:29:34.046Z,99.08
2018-04-28T01:30:43.153Z,98.79
2018-04-28T01:31:51.988Z,99.18
2018-04-28T01:33:00.822Z,98.99
2018-04-28T01:34:09.654Z,99.08
2018-04-28T01:35:18.484Z,99.75
2018-04-28T01:36:27.315Z,99.27
2018-04-28T01:37:36.157Z,99.55
2018-04-28T01:38:45.316Z,99.55
2018-04-28T01:39:54.298Z,98.51
2018-04-28T01:41:03.131Z,99.27
2018-04-28T01:42:11.965Z,99.27
2018-04-28T01:43:20.795Z,99.94
2018-04-28T01:44:29.629Z,99.08
2018-04-28T01:45:38.940Z,98.6
2018-04-28T01:46:47.776Z,99.18
2018-04-28T01:47:56.653Z,99.84
2018-04-28T01:49:05.773Z,99.08
2018-04-28T01:50:14.605Z,98.7
2018-04-28T01:51:23.542Z,97.99
2018-04-28T01:52:32.381Z,98.94
2018-04-28T01:53:41.213Z,99.32
2018-04-28T01:54:50.047Z,99.32
2018-04-28T01:55:58.877Z,99.32
2018-04-28T01:57:07.865Z,98.84
2018-04-28T01:58:16.697Z,99.99
2018-04-28T01:59:25.545Z,99.22
2018-04-28T02:00:34.361Z,98.55
2018-04-28T02:01:43.201Z,99.03
2018-04-28T02:02:52.181Z,99.6
2018-04-28T02:04:01.568Z,99.03
2018-04-28T02:05:10.682Z,99.32
2018-04-28T02:06:19.512Z,99.69
2018-04-28T02:07:28.618Z,99.03
2018-04-28T02:08:37.550Z,98.84
2018-04-28T02:09:46.384Z,98.99
2018-04-28T02:10:55.220Z,97.89
2018-04-28T02:12:04.334Z,98.65
2018-04-28T02:13:13.164Z,99.03
2018-04-28T02:14:22.198Z,97.99
2018-04-28T02:15:31.031Z,99.13
2018-04-28T02:16:39.866Z,99.03
2018-04-28T02:17:48.698Z,98.84
2018-04-28T02:18:57.532Z,99.32
2018-04-28T02:20:06.367Z,98.84
2018-04-28T02:21:15.200Z,98.65
2018-04-28T02:22:24.034Z,99.03
2018-04-28T02:23:32.865Z,99.13
2018-04-28T02:24:41.699Z,99.6
2018-04-28T02:25:50.684Z,98.18
2018-04-28T02:26:59.516Z,99.22
2018-04-28T02:28:08.624Z,99.03
2018-04-28T02:29:17.458Z,99.03
2018-04-28T02:30:26.293Z,99.13
2018-04-28T02:31:35.962Z,98.84
2018-04-28T02:32:44.796Z,98.84
2018-04-28T02:33:53.627Z,98.94
2018-04-28T02:35:02.745Z,99.13
2018-04-28T02:36:12.120Z,98.84
2018-04-28T02:37:21.285Z,98.84
2018-04-28T02:38:30.397Z,99.13
2018-04-28T02:39:39.503Z,99.41
2018-04-28T02:40:48.346Z,98.84
2018-04-28T02:41:57.451Z,99.32
2018-04-28T02:43:06.661Z,98.27
2018-04-28T02:44:15.498Z,99.03
2018-04-28T02:45:24.989Z,98.74
2018-04-28T02:46:33.822Z,99.32
2018-04-28T02:47:43.210Z,99.03
2018-04-28T02:48:52.436Z,99.22
2018-04-28T02:50:01.655Z,98.98
2018-04-28T02:51:10.387Z,98.6
2018-04-28T02:52:19.782Z,98.98
2018-04-28T02:53:29.164Z,99.08
2018-04-28T02:54:38.048Z,99.46
2018-04-28T02:55:47.708Z,99.65
2018-04-28T02:56:56.545Z,99.55
2018-04-28T02:58:05.655Z,99.08
2018-04-28T02:59:14.766Z,99.65
2018-04-28T03:00:24.035Z,99.55
2018-04-28T03:01:33.427Z,99.65
2018-04-28T03:02:42.816Z,99.46
2018-04-28T03:03:51.648Z,99.46
2018-04-28T03:05:00.766Z,98.79
2018-04-28T03:06:09.649Z,99.65
2018-04-28T03:07:19.319Z,99.27
2018-04-28T03:08:28.151Z,99.08
2018-04-28T03:09:37.259Z,98.6
2018-04-28T03:10:46.367Z,98.6
2018-04-28T03:11:55.849Z,98.79
2018-04-28T03:13:04.961Z,98.6
2018-04-28T03:14:13.794Z,98.88
2018-04-28T03:15:22.900Z,98.6
2018-04-28T03:16:31.738Z,98.6
2018-04-28T03:17:40.670Z,98.6
2018-04-28T03:18:49.504Z,98.41
2018-04-28T03:19:58.336Z,98.88
2018-04-28T03:21:07.167Z,98.98
2018-04-28T03:22:16.003Z,98.22
2018-04-28T03:23:25.246Z,98.41
2018-04-28T03:24:34.078Z,98.79
2018-04-28T03:25:42.910Z,98.41
2018-04-28T03:26:51.741Z,98.98
2018-04-28T03:28:00.571Z,98.22
2018-04-28T03:29:09.679Z,98.69
2018-04-28T03:30:18.791Z,98.32
2018-04-28T03:31:28.174Z,98.41
2018-04-28T03:32:37.011Z,98.5
2018-04-28T03:33:45.847Z,98.22
2018-04-28T03:34:55.056Z,98.5
2018-04-28T03:36:03.890Z,98.6
2018-04-28T03:37:12.723Z,97.84
2018-04-28T03:38:21.557Z,98.41
2018-04-28T03:39:30.390Z,97.93
2018-04-28T03:40:39.381Z,97.93
2018-04-28T03:41:48.212Z,98.13
2018-04-28T03:42:57.045Z,98.03
2018-04-28T03:44:05.878Z,98.03
2018-04-28T03:45:14.984Z,97.79
2018-04-28T03:46:24.119Z,98.03
2018-04-28T03:47:32.949Z,98.74
2018-04-28T03:48:42.057Z,97.98
2018-04-28T03:49:50.888Z,98.03
2018-04-28T03:51:00.006Z,98.03
2018-04-28T03:52:09.439Z,98.22
2018-04-28T03:53:18.273Z,97.74
2018-04-28T03:54:27.111Z,97.93
2018-04-28T03:55:35.946Z,98.22
2018-04-28T03:56:44.779Z,97.74
2018-04-28T03:57:53.612Z,97.84
2018-04-28T03:59:02.446Z,97.74
2018-04-28T04:00:11.276Z,98.03
2018-04-28T04:01:20.393Z,97.84
2018-04-28T04:02:29.225Z,97.93
2018-04-28T04:03:38.213Z,98.13
2018-04-28T04:04:47.040Z,97.93
2018-04-28T04:05:56.150Z,98.32
2018-04-28T04:07:05.257Z,98.03
2018-04-28T04:08:14.091Z,98.6
2018-04-28T04:09:23.077Z,97.65
2018-04-28T04:10:32.185Z,98.13
2018-04-28T04:11:41.019Z,97.55
2018-04-28T04:12:50.130Z,97.65
2018-04-28T04:13:58.961Z,97.84
2018-04-28T04:15:08.220Z,97.65
2018-04-28T04:16:17.053Z,97.65
2018-04-28T04:17:26.160Z,97.93
2018-04-28T04:18:34.995Z,98.13
2018-04-28T04:19:43.828Z,97.93
2018-04-28T04:20:52.961Z,97.46
2018-04-28T04:22:01.796Z,97.93
2018-04-28T04:23:10.628Z,97.84
2018-04-28T04:24:19.735Z,98.13
2018-04-28T04:25:28.575Z,97.36
2018-04-28T04:26:37.451Z,98.03
2018-04-28T04:27:46.240Z,97.84
2018-04-28T04:28:55.347Z,98.03
2018-04-28T04:30:04.179Z,97.84
2018-04-28T04:31:13.284Z,98.32
2018-04-28T04:32:22.119Z,98.32
2018-04-28T04:33:30.950Z,97.74
2018-04-28T04:34:39.785Z,97.84
2018-04-28T04:35:48.891Z,97.84
2018-04-28T04:36:57.722Z,97.93
2018-04-28T04:38:06.858Z,98.32
2018-04-28T04:39:15.692Z,97.65
2018-04-28T04:40:24.525Z,97.46
2018-04-28T04:41:33.360Z,98.22
2018-04-28T04:42:42.194Z,98.22
2018-04-28T04:43:51.300Z,98.32
2018-04-28T04:45:00.132Z,98.32
2018-04-28T04:46:09.242Z,98.03
2018-04-28T04:47:18.352Z,98.03
2018-04-28T04:48:27.459Z,98.13
2018-04-28T04:49:36.443Z,98.22
2018-04-28T04:50:45.272Z,97.93
2018-04-28T04:51:54.105Z,97.93
2018-04-28T04:53:02.937Z,98.41
2018-04-28T04:54:11.770Z,98.03
2018-04-28T04:55:20.755Z,98.13
2018-04-28T04:56:29.590Z,98.41
2018-04-28T04:57:38.694Z,98.6
2018-04-28T04:58:47.526Z,97.93
2018-04-28T04:59:56.363Z,98.5
2018-04-28T05:01:05.344Z,98.22
2018-04-28T05:02:14.184Z,98.5
2018-04-28T05:03:23.016Z,98.32
2018-04-28T05:04:31.850Z,98.79
2018-04-28T05:05:41.236Z,98.03
2018-04-28T05:06:50.070Z,98.32
2018-04-28T05:07:58.900Z,98.22
2018-04-28T05:09:08.011Z,98.22
2018-04-28T05:10:16.845Z,98.41
2018-04-28T05:11:25.676Z,98.22
2018-04-28T05:12:34.658Z,98.22
2018-04-28T05:13:43.493Z,97.84
2018-04-28T05:14:52.323Z,98.13
2018-04-28T05:16:01.159Z,98.03
2018-04-28T05:17:09.992Z,97.74
2018-04-28T05:18:18.825Z,97.84
2018-04-28T05:19:27.662Z,97.93
2018-04-28T05:20:36.488Z,97.93
2018-04-28T05:21:45.899Z,97.27
2018-04-28T05:22:54.732Z,97.93
2018-04-28T05:24:03.719Z,98.13
2018-04-28T05:25:12.824Z,98.08
2018-04-28T05:26:21.654Z,97.79
2018-04-28T05:27:30.489Z,98.08
2018-04-28T05:28:39.324Z,98.27
2018-04-28T05:29:48.160Z,98.18
2018-04-28T05:30:56.992Z,98.18
2018-04-28T05:32:05.825Z,97.99
2018-04-28T05:33:14.664Z,97.7
2018-04-28T05:34:23.491Z,97.89
2018-04-28T05:35:32.478Z,97.79
2018-04-28T05:36:41.310Z,98.18
2018-04-28T05:37:50.141Z,98.08
2018-04-28T05:38:58.976Z,97.41
2018-04-28T05:40:07.811Z,98.36
2018-04-28T05:41:16.976Z,97.89
2018-04-28T05:42:26.188Z,97.89
2018-04-28T05:43:35.022Z,98.08
2018-04-28T05:44:43.852Z,98.08
2018-04-28T05:45:52.688Z,98.08
2018-04-28T05:47:01.528Z,98.18
2018-04-28T05:48:10.639Z,98.08
2018-04-28T05:49:19.476Z,98.08
2018-04-28T05:50:28.588Z,98.55
2018-04-28T05:51:37.421Z,97.99
2018-04-28T05:52:46.255Z,98.27
2018-04-28T05:53:55.088Z,98.18
2018-04-28T05:55:04.481Z,98.18
2018-04-28T05:56:13.314Z,97.99
2018-04-28T05:57:22.147Z,98.08
2018-04-28T05:58:31.357Z,98.08
2018-04-28T05:59:40.190Z,97.89
2018-04-28T06:00:49.024Z,97.99
2018-04-28T06:01:57.858Z,98.46
2018-04-28T06:03:06.689Z,98.27
2018-04-28T06:04:15.623Z,98.18
2018-04-28T06:05:24.459Z,98.18
2018-04-28T06:06:33.292Z,97.89
2018-04-28T06:07:42.127Z,97.41
2018-04-28T06:08:51.236Z,97.99
2018-04-28T06:10:00.731Z,97.27
2018-04-28T06:11:09.566Z,98.03
2018-04-28T06:12:18.673Z,98.51
2018-04-28T06:13:27.504Z,97.65
2018-04-28T06:14:36.336Z,98.32
2018-04-28T06:15:45.324Z,97.65
2018-04-28T06:16:54.431Z,97.46
2018-04-28T06:18:03.624Z,97.27
2018-04-28T06:19:12.459Z,98.32
2018-04-28T06:20:21.295Z,97.75
2018-04-28T06:21:30.501Z,97.65
2018-04-28T06:22:39.339Z,97.08
2018-04-28T06:23:48.174Z,98.22
2018-04-28T06:24:57.009Z,97.56
2018-04-28T06:26:06.556Z,97.75
2018-04-28T06:27:16.067Z,97.46
2018-04-28T06:28:25.172Z,97.27
2018-04-28T06:29:34.286Z,98.22
2018-04-28T06:30:43.120Z,97.75
2018-04-28T06:31:51.957Z,97.27
2018-04-28T06:33:01.120Z,97.17
2018-04-28T06:34:10.230Z,97.56
2018-04-28T06:35:19.060Z,97.75
2018-04-28T06:36:27.895Z,97.08
2018-04-28T06:37:36.727Z,97.46
2018-04-28T06:38:45.863Z,98.51
2018-04-28T06:39:54.701Z,97.32
2018-04-28T06:41:03.536Z,97.13
2018-04-28T06:42:12.673Z,97.51
2018-04-28T06:43:21.509Z,98.32
2018-04-28T06:44:30.918Z,97.41
2018-04-28T06:45:40.022Z,97.51
2018-04-28T06:46:48.857Z,97.51
2018-04-28T06:47:57.689Z,97.32
2018-04-28T06:49:06.523Z,97.7
2018-04-28T06:50:15.637Z,97.13
2018-04-28T06:51:24.473Z,97.7
2018-04-28T06:52:33.307Z,97.8
2018-04-28T06:53:42.141Z,97.7
2018-04-28T06:54:51.051Z,97.61
2018-04-28T06:55:59.863Z,97.7
2018-04-28T06:57:08.701Z,97.51
2018-04-28T06:58:17.537Z,97.51
2018-04-28T06:59:26.390Z,98.36
2018-04-28T07:00:35.208Z,98.08
2018-04-28T07:01:44.045Z,97.51
2018-04-28T07:02:52.887Z,97.89
2018-04-28T07:04:02.556Z,97.89
2018-04-28T07:05:11.391Z,97.32
2018-04-28T07:06:20.229Z,97.61
2018-04-28T07:07:29.485Z,97.22
2018-04-28T07:08:38.598Z,97.61
2018-04-28T07:09:47.430Z,97.46
2018-04-28T07:10:56.265Z,97.13
2018-04-28T07:12:05.102Z,97.46
2018-04-28T07:13:14.363Z,97.66
2018-04-28T07:14:23.199Z,97.66
2018-04-28T07:15:32.033Z,97.56
2018-04-28T07:16:40.867Z,97.27
2018-04-28T07:17:49.702Z,97.66
2018-04-28T07:18:58.541Z,97.94
2018-04-28T07:20:07.656Z,97.46
2018-04-28T07:21:16.766Z,97.46
2018-04-28T07:22:25.601Z,97.56
2018-04-28T07:23:34.433Z,97.37
2018-04-28T07:24:43.273Z,97.71
2018-04-28T07:25:52.109Z,97.42
2018-04-28T07:27:00.939Z,97.22
2018-04-28T07:28:10.050Z,97.8
2018-04-28T07:29:18.958Z,97.8
2018-04-28T07:30:27.728Z,97.42
2018-04-28T07:31:36.837Z,97.61
2018-04-28T07:32:45.675Z,97.42
2018-04-28T07:33:54.510Z,96.56
2018-04-28T07:35:03.348Z,97.32
2018-04-28T07:36:12.457Z,97.32
2018-04-28T07:37:21.293Z,96.61
2018-04-28T07:38:30.131Z,96.89
2018-04-28T07:39:38.970Z,97.18
2018-04-28T07:40:48.092Z,96.98
2018-04-28T07:41:56.928Z,96.89
2018-04-28T07:43:05.766Z,97.13
2018-04-28T07:44:14.607Z,96.66
2018-04-28T07:45:23.510Z,96.56
2018-04-28T07:46:32.348Z,96.84
2018-04-28T07:47:41.268Z,96.27
2018-04-28T07:48:50.025Z,96.27
2018-04-28T07:49:58.911Z,96.84
2018-04-28T07:51:07.757Z,96.37
2018-04-28T07:52:16.601Z,96.46
2018-04-28T07:53:25.445Z,95.94
2018-04-28T07:54:34.281Z,96.22
2018-04-28T07:55:43.217Z,96.22
2018-04-28T07:56:52.060Z,95.94
2018-04-28T07:58:00.897Z,95.65
2018-04-28T07:59:09.733Z,96.7
2018-04-28T08:00:18.646Z,96.22
2018-04-28T08:01:27.887Z,96.51
2018-04-28T08:02:36.723Z,96.13
2018-04-28T08:03:45.833Z,96.03
2018-04-28T08:04:54.669Z,95.84
2018-04-28T08:06:03.505Z,96.32
2018-04-28T08:07:12.720Z,95.89
2018-04-28T08:08:21.557Z,96.27
2018-04-28T08:09:30.396Z,95.89
2018-04-28T08:10:39.233Z,96.18
2018-04-28T08:11:48.067Z,96.27
2018-04-28T08:12:57.003Z,95.79
2018-04-28T08:14:05.840Z,96.75
2018-04-28T08:15:14.966Z,95.89
2018-04-28T08:16:24.522Z,95.7
2018-04-28T08:17:33.358Z,95.41
2018-04-28T08:18:42.950Z,95.22
2018-04-28T08:19:51.786Z,94.79
2018-04-28T08:21:00.630Z,95.46
2018-04-28T08:22:09.463Z,94.98
2018-04-28T08:23:18.302Z,95.27
2018-04-28T08:24:27.342Z,94.89
2018-04-28T08:25:36.726Z,94.98
2018-04-28T08:26:45.562Z,95.36
2018-04-28T08:27:54.398Z,94.98
2018-04-28T08:29:03.234Z,95.46
2018-04-28T08:30:12.371Z,94.98
2018-04-28T08:31:21.486Z,95.03
2018-04-28T08:32:30.325Z,95.56
2018-04-28T08:33:39.435Z,94.84
2018-04-28T08:34:48.276Z,94.45
2018-04-28T08:35:57.536Z,94.74
2018-04-28T08:37:06.821Z,94.17
2018-04-28T08:38:16.034Z,95.12
2018-04-28T08:39:24.872Z,94.07
2018-04-28T08:40:33.710Z,93.5
2018-04-28T08:41:42.596Z,93.5
2018-04-28T08:42:51.433Z,94.07
2018-04-28T08:44:00.271Z,94.4
2018-04-28T08:45:09.105Z,92.97
2018-04-28T08:46:18.549Z,92.68
2018-04-28T08:47:27.763Z,91.82
2018-04-28T08:48:36.602Z,91.34
2018-04-28T08:49:45.439Z,91.92
2018-04-28T08:50:54.276Z,91.05
2018-04-28T08:52:03.436Z,91.25
2018-04-28T08:53:12.280Z,91.25
2018-04-28T08:54:21.117Z,91.44
2018-04-28T08:55:29.956Z,92.11
2018-04-28T08:56:38.816Z,91.15
2018-04-28T08:57:47.644Z,92.01
2018-04-28T08:58:56.491Z,90.96
2018-04-28T09:00:05.331Z,91.63
2018-04-28T09:01:14.170Z,91.25
2018-04-28T09:02:23.012Z,92.21
2018-04-28T09:03:31.848Z,92.15
2018-04-28T09:04:40.788Z,91.82
2018-04-28T09:05:49.910Z,91.58
2018-04-28T09:06:58.746Z,91.96
2018-04-28T09:08:07.585Z,91
2018-04-28T09:09:16.422Z,90.72
2018-04-28T09:10:25.415Z,91
2018-04-28T09:11:34.260Z,91.1
2018-04-28T09:12:43.087Z,91
2018-04-28T09:13:52.204Z,90.62
2018-04-28T09:15:01.047Z,89.86
2018-04-28T09:16:10.082Z,90.43
2018-04-28T09:17:18.920Z,90.43
2018-04-28T09:18:28.304Z,89.57
2018-04-28T09:19:37.149Z,89.66
2018-04-28T09:20:46.404Z,89.86
2018-04-28T09:21:55.644Z,90.33
2018-04-28T09:23:04.483Z,90.53
2018-04-28T09:24:13.321Z,90.23
2018-04-28T09:25:22.161Z,89.95
2018-04-28T09:26:31.274Z,89.37
2018-04-28T09:27:40.367Z,88.9
2018-04-28T09:28:49.203Z,89.18
2018-04-28T09:29:58.042Z,88.99
2018-04-28T09:31:06.888Z,88.8
2018-04-28T09:32:15.722Z,88.7
2018-04-28T09:33:24.662Z,88.7
2018-04-28T09:34:33.502Z,89.47
2018-04-28T09:35:42.341Z,89.37
2018-04-28T09:36:51.184Z,88.8
2018-04-28T09:38:00.026Z,88.8
2018-04-28T09:39:09.141Z,89.37
2018-04-28T09:40:17.979Z,89.28
2018-04-28T09:41:26.820Z,89.95
2018-04-28T09:42:35.932Z,89.37
2018-04-28T09:43:44.772Z,88.7
2018-04-28T09:44:53.860Z,88.7
2018-04-28T09:46:02.700Z,89.28
2018-04-28T09:47:11.537Z,89.95
2018-04-28T09:48:20.651Z,89.28
2018-04-28T09:49:29.488Z,88.9
2018-04-28T09:50:38.581Z,89.86
2018-04-28T09:51:47.422Z,89.66
2018-04-28T09:52:56.257Z,89.37
2018-04-28T09:54:05.093Z,88.7
2018-04-28T09:55:13.934Z,88.99
2018-04-28T09:56:22.771Z,89.28
2018-04-28T09:57:31.611Z,89.47
2018-04-28T09:58:40.449Z,89.57
2018-04-28T09:59:49.288Z,89.47
2018-04-28T10:00:58.125Z,90.53
2018-04-28T10:02:07.063Z,90.33
2018-04-28T10:03:15.903Z,90.62
2018-04-28T10:04:24.743Z,90.05
2018-04-28T10:05:33.579Z,90.09
2018-04-28T10:06:42.419Z,89.76
2018-04-28T10:07:51.257Z,89.18
2018-04-28T10:09:00.094Z,89.37
2018-04-28T10:10:09.217Z,88.61
2018-04-28T10:11:18.053Z,88.7
2018-04-28T10:12:27.165Z,89.37
2018-04-28T10:13:36.155Z,89.57
2018-04-28T10:14:44.993Z,89.23
2018-04-28T10:15:53.837Z,88.56
2018-04-28T10:17:02.673Z,88.94
2018-04-28T10:18:11.511Z,87.88
2018-04-28T10:19:21.026Z,87.21
2018-04-28T10:20:29.863Z,87.6
2018-04-28T10:21:38.981Z,87.41
2018-04-28T10:22:47.824Z,87.5
2018-04-28T10:23:56.928Z,86.88
2018-04-28T10:25:05.768Z,86.88
2018-04-28T10:26:14.604Z,86.68
2018-04-28T10:27:23.715Z,87.64
2018-04-28T10:28:32.559Z,86.21
2018-04-28T10:29:41.399Z,86.15
2018-04-28T10:30:50.829Z,84.91
2018-04-28T10:31:59.658Z,83.75
2018-04-28T10:33:08.780Z,83.81
2018-04-28T10:34:17.620Z,84.38
2018-04-28T10:35:26.459Z,84.38
2018-04-28T10:36:35.876Z,84.19
2018-04-28T10:37:44.715Z,84.09
2018-04-28T10:38:54.102Z,84.77
2018-04-28T10:40:02.941Z,85.05
2018-04-28T10:41:11.782Z,85.05
2018-04-28T10:42:20.672Z,84.95
2018-04-28T10:43:29.783Z,85.53
2018-04-28T10:44:38.626Z,84.71
2018-04-28T10:45:47.742Z,84.71
2018-04-28T10:46:56.581Z,84.14
2018-04-28T10:48:06.270Z,83.65
2018-04-28T10:49:15.111Z,83.23
2018-04-28T10:50:23.947Z,82.7
2018-04-28T10:51:32.789Z,82.51
2018-04-28T10:52:41.629Z,82.98
2018-04-28T10:53:50.967Z,83.61
2018-04-28T10:55:00.107Z,83.61
2018-04-28T10:56:08.949Z,84.67
2018-04-28T10:57:17.787Z,85.05
2018-04-28T10:58:26.626Z,84.58
2018-04-28T10:59:35.565Z,84.42
2018-04-28T11:00:44.407Z,81.64
2018-04-28T11:01:53.250Z,82.12
2018-04-28T11:03:02.366Z,82.98
2018-04-28T11:04:11.483Z,82.89
2018-04-28T11:05:20.696Z,83.18
2018-04-28T11:06:29.812Z,82.79
2018-04-28T11:07:38.656Z,83.18
2018-04-28T11:08:47.495Z,82.12
2018-04-28T11:09:56.338Z,82.35
2018-04-28T11:11:05.229Z,82.7
2018-04-28T11:12:14.072Z,83.03
2018-04-28T11:13:22.999Z,82.84
2018-04-28T11:14:32.123Z,82.26
2018-04-28T11:15:41.239Z,82.41
2018-04-28T11:16:50.479Z,82.79
2018-04-28T11:17:59.320Z,83.65
2018-04-28T11:19:08.159Z,83.37
2018-04-28T11:20:17.003Z,83.65
2018-04-28T11:21:25.840Z,83.7
2018-04-28T11:22:34.682Z,83.8
2018-04-28T11:23:44.095Z,82.45
2018-04-28T11:24:52.932Z,83.47
2018-04-28T11:26:01.778Z,82.6
2018-04-28T11:27:10.611Z,82.89
2018-04-28T11:28:19.602Z,82.51
2018-04-28T11:29:28.767Z,82.51
2018-04-28T11:30:37.607Z,83.37
2018-04-28T11:31:46.449Z,83.85
2018-04-28T11:32:55.319Z,83.65
2018-04-28T11:34:04.633Z,83.37
2018-04-28T11:35:13.751Z,83.47
2018-04-28T11:36:22.863Z,83.85
2018-04-28T11:37:31.700Z,83.65
2018-04-28T11:38:40.539Z,84.33
2018-04-28T11:39:49.379Z,83.37
2018-04-28T11:40:58.783Z,84.33
2018-04-28T11:42:07.620Z,84.14
2018-04-28T11:43:16.459Z,83.75
2018-04-28T11:44:25.580Z,83.75
2018-04-28T11:45:34.564Z,83.47
2018-04-28T11:46:43.403Z,83.47
2018-04-28T11:47:52.517Z,83.27
2018-04-28T11:49:01.357Z,83.47
2018-04-28T11:50:10.196Z,83.75
2018-04-28T11:51:19.411Z,84.23
2018-04-28T11:52:28.254Z,84.61
2018-04-28T11:53:37.091Z,83.18
2018-04-28T11:54:45.930Z,83.85
2018-04-28T11:55:54.766Z,84.52
2018-04-28T11:57:03.754Z,83.85
2018-04-28T11:58:12.593Z,82.79
2018-04-28T11:59:21.433Z,82.7
2018-04-28T12:00:30.273Z,82.31
2018-04-28T12:01:39.111Z,83.08
2018-04-28T12:02:48.221Z,82.7
2018-04-28T12:03:57.345Z,83.37
2018-04-28T12:05:06.254Z,83.47
2018-04-28T12:06:15.024Z,83.85
2018-04-28T12:07:23.861Z,82.79
2018-04-28T12:08:33.074Z,81.74
2018-04-28T12:09:42.469Z,81.93
2018-04-28T12:10:51.310Z,82.41
2018-04-28T12:12:00.147Z,82.41
2018-04-28T12:13:08.989Z,82.98
2018-04-28T12:14:17.864Z,82.89
2018-04-28T12:15:26.671Z,81.93
2018-04-28T12:16:35.508Z,82.03
2018-04-28T12:17:44.348Z,82.12
2018-04-28T12:18:53.186Z,82.79
2018-04-28T12:20:02.224Z,82.79
2018-04-28T12:21:11.147Z,82.6
2018-04-28T12:22:20.177Z,82.41
2018-04-28T12:23:29.018Z,82.31
2018-04-28T12:24:37.857Z,83.18
2018-04-28T12:25:46.795Z,82.98
2018-04-28T12:26:55.639Z,82.89
2018-04-28T12:28:04.477Z,82.31
2018-04-28T12:29:13.318Z,82.98
2018-04-28T12:30:22.160Z,82.98
2018-04-28T12:31:31.149Z,81.26
2018-04-28T12:32:39.988Z,82.41
2018-04-28T12:33:48.829Z,82.12
2018-04-28T12:34:57.666Z,81.68
2018-04-28T12:36:06.907Z,81.4
2018-04-28T12:37:16.069Z,81.68
2018-04-28T12:38:24.911Z,81.3
2018-04-28T12:39:33.752Z,81.3
2018-04-28T12:40:42.591Z,81.49
2018-04-28T12:41:51.430Z,81.68
2018-04-28T12:43:00.370Z,82.54
2018-04-28T12:44:09.213Z,81.68
2018-04-28T12:45:18.052Z,82.16
2018-04-28T12:46:26.896Z,81.59
2018-04-28T12:47:36.288Z,82.16
2018-04-28T12:48:45.458Z,82.26
2018-04-28T12:49:54.573Z,82.64
2018-04-28T12:51:03.410Z,82.93
2018-04-28T12:52:12.250Z,82.93
2018-04-28T12:53:21.098Z,82.26
2018-04-28T12:54:30.043Z,81.4
2018-04-28T12:55:38.881Z,82.16
2018-04-28T12:56:47.725Z,81.97
2018-04-28T12:57:57.117Z,81.24
2018-04-28T12:59:06.239Z,81.49
2018-04-28T13:00:15.226Z,81.72
2018-04-28T13:01:24.349Z,82.2
2018-04-28T13:02:33.462Z,81.87
2018-04-28T13:03:42.579Z,81.63
2018-04-28T13:04:51.694Z,81.53
2018-04-28T13:06:00.537Z,80.96
2018-04-28T13:07:09.375Z,81.43
2018-04-28T13:08:18.218Z,81.34
2018-04-28T13:09:27.057Z,80.96
2018-04-28T13:10:35.898Z,80.76
2018-04-28T13:11:45.168Z,80.47
2018-04-28T13:12:54.286Z,79.9
2018-04-28T13:14:03.132Z,80.38
2018-04-28T13:15:12.247Z,81.15
2018-04-28T13:16:21.088Z,79.99
2018-04-28T13:17:30.265Z,79.75
2018-04-28T13:18:39.098Z,78.88
2018-04-28T13:19:47.953Z,77.53
2018-04-28T13:20:57.055Z,77.25
2018-04-28T13:22:05.898Z,75.9
2018-04-28T13:23:14.738Z,76.57
2018-04-28T13:24:23.584Z,77.15
2018-04-28T13:25:32.428Z,77.06
2018-04-28T13:26:41.269Z,75.75
2018-04-28T13:27:50.108Z,74.88
2018-04-28T13:28:59.252Z,74.98
2018-04-28T13:30:08.093Z,73.54
2018-04-28T13:31:16.932Z,74.08
2018-04-28T13:32:25.776Z,74.21
2018-04-28T13:33:34.620Z,73.25
2018-04-28T13:34:43.512Z,73.44
2018-04-28T13:35:52.636Z,73.63
2018-04-28T13:37:01.479Z,73.38
2018-04-28T13:38:10.320Z,74.21
2018-04-28T13:39:19.166Z,74.02
2018-04-28T13:40:28.010Z,73.63
2018-04-28T13:41:36.855Z,73.35
2018-04-28T13:42:45.972Z,73.44
2018-04-28T13:43:54.819Z,73.35
2018-04-28T13:45:03.657Z,73.25
2018-04-28T13:46:12.653Z,73.44
2018-04-28T13:47:21.494Z,73.63
2018-04-28T13:48:30.610Z,73.92
2018-04-28T13:49:39.453Z,73.73
2018-04-28T13:50:48.298Z,74.11
2018-04-28T13:51:57.513Z,74.21
2018-04-28T13:53:06.359Z,75.07
2018-04-28T13:54:15.204Z,74.3
2018-04-28T13:55:24.047Z,74.98
2018-04-28T13:56:33.438Z,75.07
2018-04-28T13:57:42.605Z,75.27
2018-04-28T13:58:51.448Z,76.14
2018-04-28T14:00:00.288Z,75.84
2018-04-28T14:01:09.132Z,75.37
2018-04-28T14:02:17.975Z,75.23
2018-04-28T14:03:27.068Z,76.09
2018-04-28T14:04:35.912Z,75.52
2018-04-28T14:05:44.754Z,76.39
2018-04-28T14:06:53.600Z,76.86
2018-04-28T14:08:02.438Z,77.06
2018-04-28T14:09:11.579Z,76.57
2018-04-28T14:10:20.420Z,76.57
2018-04-28T14:11:29.259Z,76.61
2018-04-28T14:12:38.102Z,75.94
2018-04-28T14:13:46.947Z,75.07
2018-04-28T14:14:55.840Z,73.86
2018-04-28T14:16:04.683Z,74.69
2018-04-28T14:17:13.526Z,75.46
2018-04-28T14:18:22.645Z,74.88
2018-04-28T14:19:32.096Z,75.75
2018-04-28T14:20:41.042Z,75.94
2018-04-28T14:21:49.882Z,74.6
2018-04-28T14:22:58.726Z,74.98
2018-04-28T14:24:07.567Z,74.4
2018-04-28T14:25:16.681Z,74.02
2018-04-28T14:26:25.624Z,75.56
2018-04-28T14:27:34.474Z,76.14
2018-04-28T14:28:43.592Z,75.27
2018-04-28T14:29:52.435Z,74.98
2018-04-28T14:31:01.551Z,74.11
2018-04-28T14:32:10.691Z,74.69
2018-04-28T14:33:19.540Z,74.3
2018-04-28T14:34:28.382Z,74.6
2018-04-28T14:35:37.225Z,74.4
2018-04-28T14:36:46.348Z,74.98
2018-04-28T14:37:55.184Z,75.17
2018-04-28T14:39:04.367Z,75.37
2018-04-28T14:40:13.482Z,74.88
2018-04-28T14:41:22.327Z,75.17
2018-04-28T14:42:31.172Z,74.98
2018-04-28T14:43:40.420Z,75.37
2018-04-28T14:44:49.261Z,75.84
2018-04-28T14:45:58.379Z,75.75
2018-04-28T14:47:07.220Z,76.71
2018-04-28T14:48:16.336Z,75.37
2018-04-28T14:49:25.602Z,74.98
2018-04-28T14:50:34.446Z,74.21
2018-04-28T14:51:43.289Z,74.63